Terminal Aerodrome Forecast
Issued by NWS

Home | Current Version | Previous Version | Text Only | Print | Product List | Glossary On
Versions: 1 2 3 4 5 6 7 8 9 10 11 12 13 14 15 16 17 18 19 20 21 22 23 24 25
789
FTUS43 KILX 300843 AAB
TAFBMI
TAF AMD
KBMI 300843Z 3009/3106 VRB03KT 2SM BR OVC001
     FM301400 30004KT P6SM BKN020
     FM301600 30004KT P6SM BKN035 PROB30 3021/3024 4SM -TSRA
      BKN035CB
     FM310200 VRB04KT P6SM SCT040=

USA.gov is the U.S. government's official web portal to all federal, state and local government web resources and services.